KDSM

Des Moines International Airport

Airport
ICAO code
KDSM
IATA Code
DSM
Summary
ICAO Region
NAM
ICAO Territory
Location

Des Moines, Iowa

Serving
Des Moines
Elevation
958 ft
Coordinates
41° 31' 49" N , 93° 38' 60" W
KCC
Airport CFIT
Altimeter Temperature Error Correction
Metar
KDSM 181654Z 35006KT 6SM -RA BR OVC009 09/08 A3011 RMK AO2 CIG 004V014 SLP197 P0002 T00940078

Description

Des Moines International Airport is a joint civil-military (ANG) public-use airport located 5 nm southwest of the central business district of Des Moines, a city in Polk County, Iowa.

Airport map

Aerial View

SKYbrary Partners:

Safety knowledge contributed by: